Terminal Aerodrome Forecast
Issued by NWS Cleveland, OH

Home | Current Version | Previous Version | Graphics & Text | Print | Product List | Glossary On
Versions: 1 2 3 4 5 6 7 8 9 10 11 12 13
000
FTUS41 KCLE 291745
TAFCAK
TAF
KCAK 291745Z 2918/3018 18012G20KT P6SM BKN050
      TEMPO 2920/2922 3SM -TSRA OVC050CB
     FM292200 18012G20KT P6SM BKN080
     FM300200 18010KT P6SM SCT150
      TEMPO 3010/3013 4SM BR
     FM301400 20010KT P6SM SCT035
     FM301600 22012G20KT P6SM BKN045=

USA.gov is the U.S. government's official web portal to all federal, state and local government web resources and services.